Blue Lhotse — 3FUV6 — position and weather

sailwx.info

Track history (hours):
 
Tides and Currents Weather Stations Pressure Air Temp Water Temp Dewpoint Dewpoint Depression Visibility Wind Speed Wind Dir Waves Ship Positions

Blue Lhotse

Last reported at 2018-Jun-06 12:56 UTC. Time now 2018-Jun-19 16:12 UTC.
Position S 30°14' E 031°34'.
Warning: this ship's position is 13 days out of date.

Length 292 m; draft 11.2 m.

Type: Cargo ship. MMSI: 354676000.

Date/timePositionNaut miles runAvg speedWind from/ knotsBaromVisibWave heightAir tempDewpointWater temp
2018-Jun-06 12:56S 30°14' E 031°34'614.1
2018-Jun-06 12:30S 30°08' E 031°33'612.8
2018-Jun-06 12:00S 30°01' E 031°32'612.0
2018-Jun-06 11:30S 29°57' E 031°27'612.3
2018-Jun-06 11:00S 29°53' E 031°21'611.7
2018-Jun-06 10:30S 29°50' E 031°16'510.8
2018-Jun-06 10:00S 29°46' E 031°12'2 3.4
2018-Jun-06 09:30S 29°47' E 031°11'1 1.1
2018-Jun-06 09:01S 29°47' E 031°11'1 1.2
2018-Jun-06 08:30S 29°48' E 031°11'1 1.4
2018-Jun-06 08:00S 29°48' E 031°11'1 1.7
2018-Jun-06 07:30S 29°49' E 031°11'1 1.9
2018-Jun-06 07:01S 29°50' E 031°11'1 2.1
2018-Jun-06 06:31S 29°51' E 031°10'0 0.3
2018-Jun-06 06:01S 29°51' E 031°10'0 0.6
2018-Jun-06 05:30S 29°51' E 031°10'0 0.3
2018-Jun-06 05:01S 29°52' E 031°10'0 0.6
2018-Jun-06 04:30S 29°52' E 031°10'1 1.1
2018-Jun-06 04:01S 29°52' E 031°10'1 2.3
2018-Jun-06 03:30S 29°53' E 031°10'3 6.1
2018-Jun-06 03:01S 29°53' E 031°14'4 8.4
2018-Jun-06 02:30S 29°51' E 031°18'3 5.0
2018-Jun-06 02:00S 29°51' E 031°21'3 5.1
2018-Jun-06 01:30S 29°51' E 031°24'3 6.2
2018-Jun-06 01:00S 29°51' E 031°28'3 6.6
2018-Jun-06 00:30S 29°50' E 031°31'3 6.8
2018-Jun-06 00:00S 29°48' E 031°34'3 6.8
2018-Jun-05 23:30S 29°46' E 031°37'3 6.6
2018-Jun-05 23:00S 29°43' E 031°40'5 9.7
2018-Jun-05 22:31S 29°40' E 031°44'611.6
2018-Jun-05 22:00S 29°36' E 031°49'611.6
2018-Jun-05 21:30S 29°32' E 031°53'611.2
2018-Jun-05 21:00S 29°27' E 031°58'  
Track history (hours):
 
Tides and Currents Weather Stations Pressure Air Temp Water Temp Dewpoint Dewpoint Depression Visibility Wind Speed Wind Dir Waves Ship Positions

Blue Lhotse

Last reported at 2018-Jun-06 12:56 UTC. Time now 2018-Jun-19 16:12 UTC.
Position S 30°14' E 031°34'.
Warning: this ship's position is 13 days out of date.

Length 292 m; draft 11.2 m.

Type: Cargo ship. MMSI: 354676000.

Date/timePositionNaut miles runAvg speedWind from/ knotsBaromVisibWave heightAir tempDewpointWater temp
2018-Jun-06 12:56S 30°14' E 031°34'614.1
2018-Jun-06 12:30S 30°08' E 031°33'612.8
2018-Jun-06 12:00S 30°01' E 031°32'612.0
2018-Jun-06 11:30S 29°57' E 031°27'612.3
2018-Jun-06 11:00S 29°53' E 031°21'611.7
2018-Jun-06 10:30S 29°50' E 031°16'510.8
2018-Jun-06 10:00S 29°46' E 031°12'2 3.4
2018-Jun-06 09:30S 29°47' E 031°11'1 1.1
2018-Jun-06 09:01S 29°47' E 031°11'1 1.2
2018-Jun-06 08:30S 29°48' E 031°11'1 1.4
2018-Jun-06 08:00S 29°48' E 031°11'1 1.7
2018-Jun-06 07:30S 29°49' E 031°11'1 1.9
2018-Jun-06 07:01S 29°50' E 031°11'1 2.1
2018-Jun-06 06:31S 29°51' E 031°10'0 0.3
2018-Jun-06 06:01S 29°51' E 031°10'0 0.6
2018-Jun-06 05:30S 29°51' E 031°10'0 0.3
2018-Jun-06 05:01S 29°52' E 031°10'0 0.6
2018-Jun-06 04:30S 29°52' E 031°10'1 1.1
2018-Jun-06 04:01S 29°52' E 031°10'1 2.3
2018-Jun-06 03:30S 29°53' E 031°10'3 6.1
2018-Jun-06 03:01S 29°53' E 031°14'4 8.4
2018-Jun-06 02:30S 29°51' E 031°18'3 5.0
2018-Jun-06 02:00S 29°51' E 031°21'3 5.1
2018-Jun-06 01:30S 29°51' E 031°24'3 6.2
2018-Jun-06 01:00S 29°51' E 031°28'3 6.6
2018-Jun-06 00:30S 29°50' E 031°31'3 6.8
2018-Jun-06 00:00S 29°48' E 031°34'3 6.8
2018-Jun-05 23:30S 29°46' E 031°37'3 6.6
2018-Jun-05 23:00S 29°43' E 031°40'5 9.7
2018-Jun-05 22:31S 29°40' E 031°44'611.6
2018-Jun-05 22:00S 29°36' E 031°49'611.6
2018-Jun-05 21:30S 29°32' E 031°53'611.2
2018-Jun-05 21:00S 29°27' E 031°58'  

Dump ship's entire track history